sensor_id;sensor_type;location;lat;lon;timestamp;temperature;humidity
7934;DHT22;4012;48.896;9.192;2022-12-07T00:01:08;4.10;99.90
7934;DHT22;4012;48.896;9.192;2022-12-07T00:03:36;4.20;99.90
7934;DHT22;4012;48.896;9.192;2022-12-07T00:06:03;4.20;99.90
7934;DHT22;4012;48.896;9.192;2022-12-07T00:08:31;4.10;99.90
7934;DHT22;4012;48.896;9.192;2022-12-07T00:11:01;4.10;99.90
7934;DHT22;4012;48.896;9.192;2022-12-07T00:13:27;4.10;99.90
7934;DHT22;4012;48.896;9.192;2022-12-07T00:15:53;4.10;99.90
7934;DHT22;4012;48.896;9.192;2022-12-07T00:18:18;4.10;99.90
7934;DHT22;4012;48.896;9.192;2022-12-07T00:20:44;4.20;99.90
7934;DHT22;4012;48.896;9.192;2022-12-07T00:23:09;4.10;99.90
7934;DHT22;4012;48.896;9.192;2022-12-07T00:25:35;4.10;99.90
7934;DHT22;4012;48.896;9.192;2022-12-07T00:28:00;4.10;99.90
7934;DHT22;4012;48.896;9.192;2022-12-07T00:30:26;4.10;99.90
7934;DHT22;4012;48.896;9.192;2022-12-07T00:32:52;4.10;99.90
7934;DHT22;4012;48.896;9.192;2022-12-07T00:35:19;4.00;99.90
7934;DHT22;4012;48.896;9.192;2022-12-07T00:37:45;4.00;99.90
7934;DHT22;4012;48.896;9.192;2022-12-07T00:40:11;4.00;99.90
7934;DHT22;4012;48.896;9.192;2022-12-07T00:42:36;3.90;99.90
7934;DHT22;4012;48.896;9.192;2022-12-07T00:45:02;3.90;99.90
7934;DHT22;4012;48.896;9.192;2022-12-07T00:47:28;3.90;99.90
7934;DHT22;4012;48.896;9.192;2022-12-07T00:49:53;3.90;99.90
7934;DHT22;4012;48.896;9.192;2022-12-07T00:52:19;3.90;99.90
7934;DHT22;4012;48.896;9.192;2022-12-07T00:54:45;3.90;99.90
7934;DHT22;4012;48.896;9.192;2022-12-07T00:57:10;3.90;99.90
7934;DHT22;4012;48.896;9.192;2022-12-07T00:59:36;3.90;99.90
7934;DHT22;4012;48.896;9.192;2022-12-07T01:02:01;3.90;99.90
7934;DHT22;4012;48.896;9.192;2022-12-07T01:04:27;3.90;99.90
7934;DHT22;4012;48.896;9.192;2022-12-07T01:06:52;3.90;99.90
7934;DHT22;4012;48.896;9.192;2022-12-07T01:09:18;3.90;99.90
7934;DHT22;4012;48.896;9.192;2022-12-07T01:11:43;3.90;99.90
7934;DHT22;4012;48.896;9.192;2022-12-07T01:14:09;3.90;99.90
7934;DHT22;4012;48.896;9.192;2022-12-07T01:16:35;3.90;99.90
7934;DHT22;4012;48.896;9.192;2022-12-07T01:19:00;3.90;99.90
7934;DHT22;4012;48.896;9.192;2022-12-07T01:21:29;3.90;99.90
7934;DHT22;4012;48.896;9.192;2022-12-07T01:23:57;4.00;99.90
7934;DHT22;4012;48.896;9.192;2022-12-07T01:26:24;4.00;99.90
7934;DHT22;4012;48.896;9.192;2022-12-07T01:28:50;4.00;99.90
7934;DHT22;4012;48.896;9.192;2022-12-07T01:31:19;4.00;99.90
7934;DHT22;4012;48.896;9.192;2022-12-07T01:33:47;4.00;99.90
7934;DHT22;4012;48.896;9.192;2022-12-07T01:36:22;4.00;99.90
7934;DHT22;4012;48.896;9.192;2022-12-07T01:38:50;4.00;99.90
7934;DHT22;4012;48.896;9.192;2022-12-07T01:41:20;4.00;99.90
7934;DHT22;4012;48.896;9.192;2022-12-07T01:44:24;4.00;99.90
7934;DHT22;4012;48.896;9.192;2022-12-07T01:47:00;3.90;99.90
7934;DHT22;4012;48.896;9.192;2022-12-07T01:49:39;4.00;99.90
7934;DHT22;4012;48.896;9.192;2022-12-07T01:52:19;4.00;99.90
7934;DHT22;4012;48.896;9.192;2022-12-07T01:54:47;4.00;99.90
7934;DHT22;4012;48.896;9.192;2022-12-07T01:57:16;4.00;99.90
7934;DHT22;4012;48.896;9.192;2022-12-07T01:59:43;4.00;99.90
7934;DHT22;4012;48.896;9.192;2022-12-07T02:02:37;4.00;99.90
7934;DHT22;4012;48.896;9.192;2022-12-07T02:05:04;4.00;99.90
7934;DHT22;4012;48.896;9.192;2022-12-07T02:07:31;4.00;99.90
7934;DHT22;4012;48.896;9.192;2022-12-07T02:10:12;4.00;99.90
7934;DHT22;4012;48.896;9.192;2022-12-07T02:12:37;4.00;99.90
7934;DHT22;4012;48.896;9.192;2022-12-07T02:15:03;4.00;99.90
7934;DHT22;4012;48.896;9.192;2022-12-07T02:17:37;4.00;99.90
7934;DHT22;4012;48.896;9.192;2022-12-07T02:20:26;4.00;99.90
7934;DHT22;4012;48.896;9.192;2022-12-07T02:23:25;4.00;99.90
7934;DHT22;4012;48.896;9.192;2022-12-07T02:26:28;4.00;99.90
7934;DHT22;4012;48.896;9.192;2022-12-07T02:29:11;4.00;99.90
7934;DHT22;4012;48.896;9.192;2022-12-07T02:31:45;4.00;99.90
7934;DHT22;4012;48.896;9.192;2022-12-07T02:34:26;4.00;99.90
7934;DHT22;4012;48.896;9.192;2022-12-07T02:36:59;4.00;99.90
7934;DHT22;4012;48.896;9.192;2022-12-07T02:39:40;4.00;99.90
7934;DHT22;4012;48.896;9.192;2022-12-07T02:42:17;4.00;99.90
7934;DHT22;4012;48.896;9.192;2022-12-07T02:44:44;4.00;99.90
7934;DHT22;4012;48.896;9.192;2022-12-07T02:47:13;4.00;99.90
7934;DHT22;4012;48.896;9.192;2022-12-07T02:49:40;4.00;99.90
7934;DHT22;4012;48.896;9.192;2022-12-07T02:52:06;4.00;99.90
7934;DHT22;4012;48.896;9.192;2022-12-07T02:54:31;4.00;99.90
7934;DHT22;4012;48.896;9.192;2022-12-07T03:00:06;4.00;99.90
7934;DHT22;4012;48.896;9.192;2022-12-07T03:11:44;3.90;99.90
7934;DHT22;4012;48.896;9.192;2022-12-07T03:14:13;3.80;99.90
7934;DHT22;4012;48.896;9.192;2022-12-07T03:16:47;3.80;99.90
7934;DHT22;4012;48.896;9.192;2022-12-07T03:19:17;3.80;99.90
7934;DHT22;4012;48.896;9.192;2022-12-07T03:21:49;3.80;99.90
7934;DHT22;4012;48.896;9.192;2022-12-07T03:24:20;3.80;99.90
7934;DHT22;4012;48.896;9.192;2022-12-07T03:26:51;3.80;99.90
7934;DHT22;4012;48.896;9.192;2022-12-07T03:29:31;3.80;99.90
7934;DHT22;4012;48.896;9.192;2022-12-07T03:32:03;3.80;99.90
7934;DHT22;4012;48.896;9.192;2022-12-07T03:34:38;3.70;99.90
7934;DHT22;4012;48.896;9.192;2022-12-07T03:42:31;3.80;99.90
7934;DHT22;4012;48.896;9.192;2022-12-07T03:44:58;3.70;99.90
7934;DHT22;4012;48.896;9.192;2022-12-07T03:47:42;3.70;99.90
7934;DHT22;4012;48.896;9.192;2022-12-07T03:50:31;3.70;99.90
7934;DHT22;4012;48.896;9.192;2022-12-07T03:53:08;3.60;99.90
7934;DHT22;4012;48.896;9.192;2022-12-07T03:55:38;3.60;99.90
7934;DHT22;4012;48.896;9.192;2022-12-07T03:58:11;3.60;99.90
7934;DHT22;4012;48.896;9.192;2022-12-07T04:00:37;3.60;99.90
7934;DHT22;4012;48.896;9.192;2022-12-07T04:03:03;3.60;99.90
7934;DHT22;4012;48.896;9.192;2022-12-07T04:05:29;3.60;99.90
7934;DHT22;4012;48.896;9.192;2022-12-07T04:07:55;3.70;99.90
7934;DHT22;4012;48.896;9.192;2022-12-07T04:10:20;3.60;99.90
7934;DHT22;4012;48.896;9.192;2022-12-07T04:12:46;3.50;99.90
7934;DHT22;4012;48.896;9.192;2022-12-07T04:15:11;3.50;99.90
7934;DHT22;4012;48.896;9.192;2022-12-07T04:17:37;3.50;99.90
7934;DHT22;4012;48.896;9.192;2022-12-07T04:20:04;3.60;99.90
7934;DHT22;4012;48.896;9.192;2022-12-07T04:22:30;3.60;99.90
7934;DHT22;4012;48.896;9.192;2022-12-07T04:24:55;3.70;99.90
7934;DHT22;4012;48.896;9.192;2022-12-07T04:27:21;3.60;99.90
7934;DHT22;4012;48.896;9.192;2022-12-07T04:29:46;3.70;99.90
7934;DHT22;4012;48.896;9.192;2022-12-07T04:32:12;3.70;99.90
7934;DHT22;4012;48.896;9.192;2022-12-07T04:34:37;3.60;99.90
7934;DHT22;4012;48.896;9.192;2022-12-07T04:37:03;3.60;99.90
7934;DHT22;4012;48.896;9.192;2022-12-07T04:39:35;3.70;99.90
7934;DHT22;4012;48.896;9.192;2022-12-07T04:42:02;3.60;99.90
7934;DHT22;4012;48.896;9.192;2022-12-07T04:44:28;3.50;99.90
7934;DHT22;4012;48.896;9.192;2022-12-07T04:46:54;3.50;99.90
7934;DHT22;4012;48.896;9.192;2022-12-07T04:49:21;3.50;99.90
7934;DHT22;4012;48.896;9.192;2022-12-07T04:51:47;3.50;99.90
7934;DHT22;4012;48.896;9.192;2022-12-07T04:54:14;3.50;99.90
7934;DHT22;4012;48.896;9.192;2022-12-07T04:56:41;3.50;99.90
7934;DHT22;4012;48.896;9.192;2022-12-07T04:59:07;3.50;99.90
7934;DHT22;4012;48.896;9.192;2022-12-07T05:01:33;3.50;99.90
7934;DHT22;4012;48.896;9.192;2022-12-07T05:03:59;3.50;99.90
7934;DHT22;4012;48.896;9.192;2022-12-07T05:06:25;3.50;99.90
7934;DHT22;4012;48.896;9.192;2022-12-07T05:08:51;3.40;99.90
7934;DHT22;4012;48.896;9.192;2022-12-07T05:11:17;3.40;99.90
7934;DHT22;4012;48.896;9.192;2022-12-07T05:14:02;3.40;99.90
7934;DHT22;4012;48.896;9.192;2022-12-07T05:16:27;3.40;99.90
7934;DHT22;4012;48.896;9.192;2022-12-07T05:18:53;3.40;99.90
7934;DHT22;4012;48.896;9.192;2022-12-07T05:21:19;3.30;99.90
7934;DHT22;4012;48.896;9.192;2022-12-07T05:23:44;3.30;99.90
7934;DHT22;4012;48.896;9.192;2022-12-07T05:26:10;3.20;99.90
7934;DHT22;4012;48.896;9.192;2022-12-07T05:28:36;3.20;99.90
7934;DHT22;4012;48.896;9.192;2022-12-07T05:31:01;3.30;99.90
7934;DHT22;4012;48.896;9.192;2022-12-07T05:33:27;3.40;99.90
7934;DHT22;4012;48.896;9.192;2022-12-07T05:35:53;3.80;99.90
7934;DHT22;4012;48.896;9.192;2022-12-07T05:38:18;3.70;99.90
7934;DHT22;4012;48.896;9.192;2022-12-07T05:40:44;3.50;99.90
7934;DHT22;4012;48.896;9.192;2022-12-07T05:43:10;3.40;99.90
7934;DHT22;4012;48.896;9.192;2022-12-07T05:45:36;3.40;99.90
7934;DHT22;4012;48.896;9.192;2022-12-07T05:48:01;3.30;99.90
7934;DHT22;4012;48.896;9.192;2022-12-07T05:50:27;3.40;99.90
7934;DHT22;4012;48.896;9.192;2022-12-07T05:52:53;3.40;99.90
7934;DHT22;4012;48.896;9.192;2022-12-07T05:55:19;3.40;99.90
7934;DHT22;4012;48.896;9.192;2022-12-07T05:57:45;3.40;99.90
7934;DHT22;4012;48.896;9.192;2022-12-07T06:00:30;3.40;99.90
7934;DHT22;4012;48.896;9.192;2022-12-07T06:02:56;3.40;99.90
7934;DHT22;4012;48.896;9.192;2022-12-07T06:05:22;3.40;99.90
7934;DHT22;4012;48.896;9.192;2022-12-07T06:07:47;3.40;99.90
7934;DHT22;4012;48.896;9.192;2022-12-07T06:10:13;3.40;99.90
7934;DHT22;4012;48.896;9.192;2022-12-07T06:12:39;3.40;99.90
7934;DHT22;4012;48.896;9.192;2022-12-07T06:15:08;3.40;99.90
7934;DHT22;4012;48.896;9.192;2022-12-07T06:17:35;3.50;99.90
7934;DHT22;4012;48.896;9.192;2022-12-07T06:20:00;3.50;99.90
7934;DHT22;4012;48.896;9.192;2022-12-07T06:22:26;3.60;99.90
7934;DHT22;4012;48.896;9.192;2022-12-07T06:24:52;3.60;99.90
7934;DHT22;4012;48.896;9.192;2022-12-07T06:27:17;3.70;99.90
7934;DHT22;4012;48.896;9.192;2022-12-07T06:29:43;3.70;99.90
7934;DHT22;4012;48.896;9.192;2022-12-07T06:32:08;3.70;99.90
7934;DHT22;4012;48.896;9.192;2022-12-07T06:34:34;3.70;99.90
7934;DHT22;4012;48.896;9.192;2022-12-07T06:37:00;3.70;99.90
7934;DHT22;4012;48.896;9.192;2022-12-07T06:39:27;3.70;99.90
7934;DHT22;4012;48.896;9.192;2022-12-07T06:41:54;3.70;99.90
7934;DHT22;4012;48.896;9.192;2022-12-07T06:44:20;3.60;99.90
7934;DHT22;4012;48.896;9.192;2022-12-07T06:46:47;3.60;99.90
7934;DHT22;4012;48.896;9.192;2022-12-07T06:49:13;3.60;99.90
7934;DHT22;4012;48.896;9.192;2022-12-07T06:51:38;3.60;99.90
7934;DHT22;4012;48.896;9.192;2022-12-07T06:54:15;3.60;99.90
7934;DHT22;4012;48.896;9.192;2022-12-07T06:56:41;3.50;99.90
7934;DHT22;4012;48.896;9.192;2022-12-07T06:59:07;3.60;99.90
7934;DHT22;4012;48.896;9.192;2022-12-07T07:01:34;3.50;99.90
7934;DHT22;4012;48.896;9.192;2022-12-07T07:04:00;3.60;99.90
7934;DHT22;4012;48.896;9.192;2022-12-07T07:06:26;3.60;99.90
7934;DHT22;4012;48.896;9.192;2022-12-07T07:08:52;3.60;99.90
7934;DHT22;4012;48.896;9.192;2022-12-07T07:11:18;3.60;99.90
7934;DHT22;4012;48.896;9.192;2022-12-07T07:13:44;3.70;99.90
7934;DHT22;4012;48.896;9.192;2022-12-07T07:16:10;3.70;99.90
7934;DHT22;4012;48.896;9.192;2022-12-07T07:18:36;3.70;99.90
7934;DHT22;4012;48.896;9.192;2022-12-07T07:21:02;3.70;99.90
7934;DHT22;4012;48.896;9.192;2022-12-07T07:23:35;3.80;99.90
7934;DHT22;4012;48.896;9.192;2022-12-07T07:26:01;3.80;99.90
7934;DHT22;4012;48.896;9.192;2022-12-07T07:28:26;3.80;99.90
7934;DHT22;4012;48.896;9.192;2022-12-07T07:30:52;3.80;99.90
7934;DHT22;4012;48.896;9.192;2022-12-07T07:33:17;3.90;99.90
7934;DHT22;4012;48.896;9.192;2022-12-07T07:35:43;3.90;99.90
7934;DHT22;4012;48.896;9.192;2022-12-07T07:38:09;3.90;99.90
7934;DHT22;4012;48.896;9.192;2022-12-07T07:40:35;3.90;99.90
7934;DHT22;4012;48.896;9.192;2022-12-07T07:43:01;3.90;99.90
7934;DHT22;4012;48.896;9.192;2022-12-07T07:45:27;3.90;99.90
7934;DHT22;4012;48.896;9.192;2022-12-07T07:47:53;3.90;99.90
7934;DHT22;4012;48.896;9.192;2022-12-07T07:50:19;4.00;99.90
7934;DHT22;4012;48.896;9.192;2022-12-07T07:52:46;4.00;99.90
7934;DHT22;4012;48.896;9.192;2022-12-07T07:55:12;4.00;99.90
7934;DHT22;4012;48.896;9.192;2022-12-07T07:57:38;4.00;99.90
7934;DHT22;4012;48.896;9.192;2022-12-07T08:00:06;4.10;99.90
7934;DHT22;4012;48.896;9.192;2022-12-07T08:02:32;4.10;99.90
7934;DHT22;4012;48.896;9.192;2022-12-07T08:04:58;4.10;99.90
7934;DHT22;4012;48.896;9.192;2022-12-07T08:07:24;4.20;99.90
7934;DHT22;4012;48.896;9.192;2022-12-07T08:09:49;4.30;99.90
7934;DHT22;4012;48.896;9.192;2022-12-07T08:12:15;4.30;99.90
7934;DHT22;4012;48.896;9.192;2022-12-07T08:14:40;4.40;99.90
7934;DHT22;4012;48.896;9.192;2022-12-07T08:17:06;4.40;99.90
7934;DHT22;4012;48.896;9.192;2022-12-07T08:19:32;4.50;99.90
7934;DHT22;4012;48.896;9.192;2022-12-07T08:21:58;4.50;99.90
7934;DHT22;4012;48.896;9.192;2022-12-07T08:24:24;4.60;99.90
7934;DHT22;4012;48.896;9.192;2022-12-07T08:26:50;4.60;99.90
7934;DHT22;4012;48.896;9.192;2022-12-07T08:29:16;4.70;99.90
7934;DHT22;4012;48.896;9.192;2022-12-07T08:31:51;4.70;99.90
7934;DHT22;4012;48.896;9.192;2022-12-07T08:34:17;4.80;99.90
7934;DHT22;4012;48.896;9.192;2022-12-07T08:36:43;4.90;99.90
7934;DHT22;4012;48.896;9.192;2022-12-07T08:39:09;4.90;99.90
7934;DHT22;4012;48.896;9.192;2022-12-07T08:41:34;4.90;99.90
7934;DHT22;4012;48.896;9.192;2022-12-07T08:44:00;5.00;99.90
7934;DHT22;4012;48.896;9.192;2022-12-07T08:49:04;5.20;99.90
7934;DHT22;4012;48.896;9.192;2022-12-07T08:51:31;5.20;99.90
7934;DHT22;4012;48.896;9.192;2022-12-07T08:53:58;5.40;99.90
7934;DHT22;4012;48.896;9.192;2022-12-07T08:56:26;5.50;99.90
7934;DHT22;4012;48.896;9.192;2022-12-07T08:58:52;5.60;99.90
7934;DHT22;4012;48.896;9.192;2022-12-07T09:01:18;5.60;99.90
7934;DHT22;4012;48.896;9.192;2022-12-07T09:03:43;5.70;99.90
7934;DHT22;4012;48.896;9.192;2022-12-07T09:06:09;5.90;99.90
7934;DHT22;4012;48.896;9.192;2022-12-07T09:08:39;6.00;99.90
7934;DHT22;4012;48.896;9.192;2022-12-07T09:11:06;6.10;99.90
7934;DHT22;4012;48.896;9.192;2022-12-07T09:13:31;6.00;99.90
7934;DHT22;4012;48.896;9.192;2022-12-07T09:15:57;6.00;99.90
7934;DHT22;4012;48.896;9.192;2022-12-07T09:18:22;6.00;99.90
7934;DHT22;4012;48.896;9.192;2022-12-07T09:20:49;5.90;99.90
7934;DHT22;4012;48.896;9.192;2022-12-07T09:23:15;6.00;99.90
7934;DHT22;4012;48.896;9.192;2022-12-07T09:25:40;5.80;99.90
7934;DHT22;4012;48.896;9.192;2022-12-07T09:28:06;5.90;99.90
7934;DHT22;4012;48.896;9.192;2022-12-07T09:30:32;6.00;99.90
7934;DHT22;4012;48.896;9.192;2022-12-07T09:32:57;6.00;99.90
7934;DHT22;4012;48.896;9.192;2022-12-07T09:35:24;5.90;99.90
7934;DHT22;4012;48.896;9.192;2022-12-07T09:37:50;5.70;99.90
7934;DHT22;4012;48.896;9.192;2022-12-07T09:40:18;5.90;99.90
7934;DHT22;4012;48.896;9.192;2022-12-07T09:42:48;6.10;99.90
7934;DHT22;4012;48.896;9.192;2022-12-07T09:45:19;6.00;99.90
7934;DHT22;4012;48.896;9.192;2022-12-07T09:47:46;5.90;99.90
7934;DHT22;4012;48.896;9.192;2022-12-07T09:50:16;5.90;99.90
7934;DHT22;4012;48.896;9.192;2022-12-07T09:52:43;5.80;99.90
7934;DHT22;4012;48.896;9.192;2022-12-07T09:55:14;5.70;99.90
7934;DHT22;4012;48.896;9.192;2022-12-07T09:57:41;5.70;99.90
7934;DHT22;4012;48.896;9.192;2022-12-07T10:00:16;5.90;99.90
7934;DHT22;4012;48.896;9.192;2022-12-07T10:02:51;5.80;99.90
7934;DHT22;4012;48.896;9.192;2022-12-07T10:05:24;5.80;99.90
7934;DHT22;4012;48.896;9.192;2022-12-07T10:07:51;5.70;99.90
7934;DHT22;4012;48.896;9.192;2022-12-07T10:10:26;5.80;99.90
7934;DHT22;4012;48.896;9.192;2022-12-07T10:13:06;5.70;99.90
7934;DHT22;4012;48.896;9.192;2022-12-07T10:15:57;5.60;99.90
7934;DHT22;4012;48.896;9.192;2022-12-07T10:23:41;5.80;99.90
7934;DHT22;4012;48.896;9.192;2022-12-07T10:28:47;6.70;99.90
7934;DHT22;4012;48.896;9.192;2022-12-07T10:31:20;6.40;99.90
7934;DHT22;4012;48.896;9.192;2022-12-07T10:34:15;6.20;99.90
7934;DHT22;4012;48.896;9.192;2022-12-07T10:36:45;5.90;99.90
7934;DHT22;4012;48.896;9.192;2022-12-07T10:39:18;6.00;99.90
7934;DHT22;4012;48.896;9.192;2022-12-07T10:41:59;6.40;99.90
7934;DHT22;4012;48.896;9.192;2022-12-07T10:44:32;6.40;99.90
7934;DHT22;4012;48.896;9.192;2022-12-07T10:52:31;6.40;99.90
7934;DHT22;4012;48.896;9.192;2022-12-07T10:57:51;6.60;99.90
7934;DHT22;4012;48.896;9.192;2022-12-07T11:00:23;7.10;99.90
7934;DHT22;4012;48.896;9.192;2022-12-07T11:11:05;7.20;99.90
7934;DHT22;4012;48.896;9.192;2022-12-07T11:14:02;6.80;99.90
7934;DHT22;4012;48.896;9.192;2022-12-07T11:19:44;6.40;99.90
7934;DHT22;4012;48.896;9.192;2022-12-07T11:22:18;6.20;99.90
7934;DHT22;4012;48.896;9.192;2022-12-07T11:28:09;6.50;99.90
7934;DHT22;4012;48.896;9.192;2022-12-07T11:38:50;5.70;99.90
7934;DHT22;4012;48.896;9.192;2022-12-07T11:41:23;5.60;99.90
7934;DHT22;4012;48.896;9.192;2022-12-07T11:46:17;5.40;99.90
7934;DHT22;4012;48.896;9.192;2022-12-07T11:51:53;5.40;99.90
7934;DHT22;4012;48.896;9.192;2022-12-07T11:54:28;5.60;99.90
7934;DHT22;4012;48.896;9.192;2022-12-07T11:56:57;5.80;99.90
7934;DHT22;4012;48.896;9.192;2022-12-07T11:59:33;5.90;99.90
7934;DHT22;4012;48.896;9.192;2022-12-07T12:02:14;5.80;99.90
7934;DHT22;4012;48.896;9.192;2022-12-07T12:05:02;5.80;99.90
7934;DHT22;4012;48.896;9.192;2022-12-07T12:07:31;6.00;99.90
7934;DHT22;4012;48.896;9.192;2022-12-07T12:10:13;6.00;99.90
7934;DHT22;4012;48.896;9.192;2022-12-07T12:15:52;6.80;99.90
7934;DHT22;4012;48.896;9.192;2022-12-07T12:21:08;6.50;99.90
7934;DHT22;4012;48.896;9.192;2022-12-07T12:23:43;6.20;99.90
7934;DHT22;4012;48.896;9.192;2022-12-07T12:26:25;5.90;99.90
7934;DHT22;4012;48.896;9.192;2022-12-07T12:29:19;6.00;99.90
7934;DHT22;4012;48.896;9.192;2022-12-07T12:32:23;6.00;99.90
7934;DHT22;4012;48.896;9.192;2022-12-07T12:35:20;5.70;99.90
7934;DHT22;4012;48.896;9.192;2022-12-07T12:37:49;5.70;99.90
7934;DHT22;4012;48.896;9.192;2022-12-07T12:42:56;5.70;99.90
7934;DHT22;4012;48.896;9.192;2022-12-07T12:45:26;5.80;99.90
7934;DHT22;4012;48.896;9.192;2022-12-07T12:50:33;5.90;99.90
7934;DHT22;4012;48.896;9.192;2022-12-07T12:56:10;5.90;99.90
7934;DHT22;4012;48.896;9.192;2022-12-07T12:58:42;6.00;99.90
7934;DHT22;4012;48.896;9.192;2022-12-07T13:03:53;6.10;99.90
7934;DHT22;4012;48.896;9.192;2022-12-07T13:06:33;6.10;99.90
7934;DHT22;4012;48.896;9.192;2022-12-07T13:09:00;5.90;99.90
7934;DHT22;4012;48.896;9.192;2022-12-07T13:11:40;5.90;99.90
7934;DHT22;4012;48.896;9.192;2022-12-07T13:17:09;5.80;99.90
7934;DHT22;4012;48.896;9.192;2022-12-07T13:24:58;5.90;99.90
7934;DHT22;4012;48.896;9.192;2022-12-07T13:27:25;5.80;99.90
7934;DHT22;4012;48.896;9.192;2022-12-07T13:29:53;5.80;99.90
7934;DHT22;4012;48.896;9.192;2022-12-07T13:32:29;6.20;99.90
7934;DHT22;4012;48.896;9.192;2022-12-07T13:34:55;6.40;99.90
7934;DHT22;4012;48.896;9.192;2022-12-07T13:37:29;6.30;99.90
7934;DHT22;4012;48.896;9.192;2022-12-07T13:40:18;6.50;99.90
7934;DHT22;4012;48.896;9.192;2022-12-07T13:42:44;6.30;99.90
7934;DHT22;4012;48.896;9.192;2022-12-07T13:45:28;6.40;99.90
7934;DHT22;4012;48.896;9.192;2022-12-07T13:48:28;6.60;99.90
7934;DHT22;4012;48.896;9.192;2022-12-07T13:50:57;6.30;99.90
7934;DHT22;4012;48.896;9.192;2022-12-07T13:53:23;6.00;99.90
7934;DHT22;4012;48.896;9.192;2022-12-07T13:55:50;6.00;99.90
7934;DHT22;4012;48.896;9.192;2022-12-07T13:58:16;6.00;99.90
7934;DHT22;4012;48.896;9.192;2022-12-07T14:00:43;5.90;99.90
7934;DHT22;4012;48.896;9.192;2022-12-07T14:05:39;5.80;99.90
7934;DHT22;4012;48.896;9.192;2022-12-07T14:10:36;5.60;99.90
7934;DHT22;4012;48.896;9.192;2022-12-07T14:13:24;5.60;99.90
7934;DHT22;4012;48.896;9.192;2022-12-07T14:15:51;5.60;99.90
7934;DHT22;4012;48.896;9.192;2022-12-07T14:18:36;5.40;99.90
7934;DHT22;4012;48.896;9.192;2022-12-07T14:23:34;5.10;99.90
7934;DHT22;4012;48.896;9.192;2022-12-07T14:26:07;5.10;99.90
7934;DHT22;4012;48.896;9.192;2022-12-07T14:28:35;5.10;99.90
7934;DHT22;4012;48.896;9.192;2022-12-07T14:31:02;5.00;99.90
7934;DHT22;4012;48.896;9.192;2022-12-07T14:33:28;4.90;99.90
7934;DHT22;4012;48.896;9.192;2022-12-07T14:35:55;5.00;99.90
7934;DHT22;4012;48.896;9.192;2022-12-07T14:38:23;5.10;99.90
7934;DHT22;4012;48.896;9.192;2022-12-07T14:40:50;5.10;99.90
7934;DHT22;4012;48.896;9.192;2022-12-07T14:43:17;5.10;99.90
7934;DHT22;4012;48.896;9.192;2022-12-07T14:45:44;5.10;99.90
7934;DHT22;4012;48.896;9.192;2022-12-07T14:48:14;5.10;99.90
7934;DHT22;4012;48.896;9.192;2022-12-07T14:50:51;5.20;99.90
7934;DHT22;4012;48.896;9.192;2022-12-07T14:53:23;5.10;99.90
7934;DHT22;4012;48.896;9.192;2022-12-07T14:55:51;5.10;99.90
7934;DHT22;4012;48.896;9.192;2022-12-07T14:58:18;5.00;99.90
7934;DHT22;4012;48.896;9.192;2022-12-07T15:00:44;4.90;99.90
7934;DHT22;4012;48.896;9.192;2022-12-07T15:03:10;4.90;99.90
7934;DHT22;4012;48.896;9.192;2022-12-07T15:05:38;4.80;99.90
7934;DHT22;4012;48.896;9.192;2022-12-07T15:08:04;4.60;99.90
7934;DHT22;4012;48.896;9.192;2022-12-07T15:10:32;4.50;99.90
7934;DHT22;4012;48.896;9.192;2022-12-07T15:12:58;4.50;99.90
7934;DHT22;4012;48.896;9.192;2022-12-07T15:15:43;4.60;99.90
7934;DHT22;4012;48.896;9.192;2022-12-07T15:18:09;4.60;99.90
7934;DHT22;4012;48.896;9.192;2022-12-07T15:20:34;4.60;99.90
7934;DHT22;4012;48.896;9.192;2022-12-07T15:23:00;4.60;99.90
7934;DHT22;4012;48.896;9.192;2022-12-07T15:25:25;4.60;99.90
7934;DHT22;4012;48.896;9.192;2022-12-07T15:27:51;4.70;99.90
7934;DHT22;4012;48.896;9.192;2022-12-07T15:30:17;5.10;99.90
7934;DHT22;4012;48.896;9.192;2022-12-07T15:32:42;5.00;99.90
7934;DHT22;4012;48.896;9.192;2022-12-07T15:35:09;4.90;99.90
7934;DHT22;4012;48.896;9.192;2022-12-07T15:37:35;4.80;99.90
7934;DHT22;4012;48.896;9.192;2022-12-07T15:40:01;4.80;99.90
7934;DHT22;4012;48.896;9.192;2022-12-07T15:42:26;4.80;99.90
7934;DHT22;4012;48.896;9.192;2022-12-07T15:44:52;5.10;99.90
7934;DHT22;4012;48.896;9.192;2022-12-07T15:47:41;5.10;99.90
7934;DHT22;4012;48.896;9.192;2022-12-07T15:50:10;4.90;99.90
7934;DHT22;4012;48.896;9.192;2022-12-07T15:52:37;4.80;99.90
7934;DHT22;4012;48.896;9.192;2022-12-07T15:55:03;4.70;99.90
7934;DHT22;4012;48.896;9.192;2022-12-07T15:57:33;5.20;99.90
7934;DHT22;4012;48.896;9.192;2022-12-07T16:00:00;5.80;99.90
7934;DHT22;4012;48.896;9.192;2022-12-07T16:02:26;5.90;99.90
7934;DHT22;4012;48.896;9.192;2022-12-07T16:04:52;5.80;99.90
7934;DHT22;4012;48.896;9.192;2022-12-07T16:07:18;5.30;99.90
7934;DHT22;4012;48.896;9.192;2022-12-07T16:09:45;5.00;99.90
7934;DHT22;4012;48.896;9.192;2022-12-07T16:12:12;5.60;99.90
7934;DHT22;4012;48.896;9.192;2022-12-07T16:14:39;6.00;99.90
7934;DHT22;4012;48.896;9.192;2022-12-07T16:17:05;6.10;99.90
7934;DHT22;4012;48.896;9.192;2022-12-07T16:19:32;6.00;99.90
7934;DHT22;4012;48.896;9.192;2022-12-07T16:21:58;6.20;99.90
7934;DHT22;4012;48.896;9.192;2022-12-07T16:24:27;6.00;99.90
7934;DHT22;4012;48.896;9.192;2022-12-07T16:26:53;5.90;99.90
7934;DHT22;4012;48.896;9.192;2022-12-07T16:29:20;6.00;99.90
7934;DHT22;4012;48.896;9.192;2022-12-07T16:31:47;5.70;99.90
7934;DHT22;4012;48.896;9.192;2022-12-07T16:34:15;5.30;99.90
7934;DHT22;4012;48.896;9.192;2022-12-07T16:36:47;5.00;99.90
7934;DHT22;4012;48.896;9.192;2022-12-07T16:39:13;4.90;99.90
7934;DHT22;4012;48.896;9.192;2022-12-07T16:41:38;5.10;99.90
7934;DHT22;4012;48.896;9.192;2022-12-07T16:44:05;5.40;99.90
7934;DHT22;4012;48.896;9.192;2022-12-07T16:46:39;5.70;99.90
7934;DHT22;4012;48.896;9.192;2022-12-07T16:49:05;5.80;99.90
7934;DHT22;4012;48.896;9.192;2022-12-07T16:51:30;5.80;99.90
7934;DHT22;4012;48.896;9.192;2022-12-07T16:53:56;5.60;99.90
7934;DHT22;4012;48.896;9.192;2022-12-07T16:56:22;5.80;99.90
7934;DHT22;4012;48.896;9.192;2022-12-07T16:58:48;5.50;99.90
7934;DHT22;4012;48.896;9.192;2022-12-07T17:01:17;5.10;99.90
7934;DHT22;4012;48.896;9.192;2022-12-07T17:03:43;4.90;99.90
7934;DHT22;4012;48.896;9.192;2022-12-07T17:08:39;5.30;99.90
7934;DHT22;4012;48.896;9.192;2022-12-07T17:11:13;5.30;99.90
7934;DHT22;4012;48.896;9.192;2022-12-07T17:13:39;5.00;99.90
7934;DHT22;4012;48.896;9.192;2022-12-07T17:16:23;4.90;99.90
7934;DHT22;4012;48.896;9.192;2022-12-07T17:18:48;4.80;99.90
7934;DHT22;4012;48.896;9.192;2022-12-07T17:21:14;4.70;99.90
7934;DHT22;4012;48.896;9.192;2022-12-07T17:23:40;4.60;99.90
7934;DHT22;4012;48.896;9.192;2022-12-07T17:26:07;4.60;99.90
7934;DHT22;4012;48.896;9.192;2022-12-07T17:28:33;4.50;99.90
7934;DHT22;4012;48.896;9.192;2022-12-07T17:30:59;4.50;99.90
7934;DHT22;4012;48.896;9.192;2022-12-07T17:33:25;4.50;99.90
7934;DHT22;4012;48.896;9.192;2022-12-07T17:35:53;4.50;99.90
7934;DHT22;4012;48.896;9.192;2022-12-07T17:38:19;4.40;99.90
7934;DHT22;4012;48.896;9.192;2022-12-07T17:40:44;4.40;99.90
7934;DHT22;4012;48.896;9.192;2022-12-07T17:43:10;4.40;99.90
7934;DHT22;4012;48.896;9.192;2022-12-07T17:45:36;4.40;99.90
7934;DHT22;4012;48.896;9.192;2022-12-07T17:48:04;4.40;99.90
7934;DHT22;4012;48.896;9.192;2022-12-07T17:50:29;4.40;99.90
7934;DHT22;4012;48.896;9.192;2022-12-07T17:53:14;4.40;99.90
7934;DHT22;4012;48.896;9.192;2022-12-07T17:55:39;4.40;99.90
7934;DHT22;4012;48.896;9.192;2022-12-07T17:58:05;4.40;99.90
7934;DHT22;4012;48.896;9.192;2022-12-07T18:00:32;4.50;99.90
7934;DHT22;4012;48.896;9.192;2022-12-07T18:03:06;4.50;99.90
7934;DHT22;4012;48.896;9.192;2022-12-07T18:05:36;4.40;99.90
7934;DHT22;4012;48.896;9.192;2022-12-07T18:08:03;4.40;99.90
7934;DHT22;4012;48.896;9.192;2022-12-07T18:10:29;4.40;99.90